< Cyclone 202012 2021 Season Cyclone 202105 >
Cyclone 202102 (noname)
General InformationTrack Information on Google MapsDetailed Wind Information || ResourceGoogle EarthGE AnimationAtom FeedGeoJSON
Year Month Day Hour Lat. Long. Pressure (hPa) Wind (kt) Class Image Chart
2020 12 4 06 -8.4 105.7 1002 20 2 Image --
2020 12 4 12 -8.4 105.8 1002 20 2 Image --
2020 12 5 18 -8.6 106.2 1002 20 2 Image --
2020 12 6 00 -8.5 106.2 1002 25 2 Image --
2020 12 6 06 -8.9 107.1 1000 30 2 Image --
2020 12 6 12 -9.5 107.7 1001 30 2 Image --
2020 12 6 18 -10.0 108.3 1002 30 2 Image --
2020 12 7 00 -10.0 108.1 1002 30 2 Image --
2020 12 7 06 -10.3 108.1 1000 30 2 Image --
2020 12 7 12 -10.6 108.2 1000 30 2 Image --
2020 12 7 18 -10.9 108.2 1000 30 2 Image --
2020 12 8 00 -11.1 107.7 1001 30 2 Image --
2020 12 8 06 -11.1 107.6 997 30 2 Image --
2020 12 8 12 -10.9 108.1 994 35 3 Image --
2020 12 8 18 -10.8 108.6 991 40 3 Image --
2020 12 9 00 -11.0 109.1 991 40 3 Image --
2020 12 9 06 -11.5 109.9 990 40 3 Image --
2020 12 9 12 -12.3 110.7 990 40 3 Image --
2020 12 9 18 -13.2 111.0 995 35 3 Image --
2020 12 10 00 -14.1 111.5 995 35 3 Image --
2020 12 10 06 -14.6 112.4 998 30 2 Image --
2020 12 10 12 -15.5 113.9 999 30 2 Image --
2020 12 10 18 -16.8 115.5 995 35 3 Image --
2020 12 11 00 -19.3 117.1 992 45 3 Image --
2020 12 11 03 -20.3 118.2 995 40 3 Image --
2020 12 11 06 -21.1 119.1 998 30 2 Image --
< Cyclone 202012 2021 Season Cyclone 202105 >

Help